Time;durP1;ratioP1;P1;durP2;ratioP2;P2;SDS_P1;SDS_P2;PMS_P1;PMS_P2;Temp;Humidity;BMP_temperature;BMP_pressure;BME280_temperature;BME280_humidity;BME280_pressure;Samples;Min_cycle;Max_cycle;Signal;HPM_P1;HPM_P2
2022/10/25 00:00:42;;;;;;;7.93;1.38;;;14.80;99.90;;;;;;5017129;28;20268;-91
2022/10/25 00:03:09;;;;;;;2.97;1.42;;;14.80;99.90;;;;;;5016629;28;20176;-91
2022/10/25 00:05:35;;;;;;;10.10;1.67;;;14.80;99.90;;;;;;5015725;28;20175;-89
2022/10/25 00:08:01;;;;;;;10.20;1.63;;;14.80;99.90;;;;;;5016612;28;20307;-88
2022/10/25 00:10:27;;;;;;;8.05;1.42;;;14.80;99.90;;;;;;5016817;28;20212;-90
2022/10/25 00:12:53;;;;;;;9.70;1.80;;;14.70;99.90;;;;;;5032263;28;20184;-91
2022/10/25 00:15:18;;;;;;;5.80;1.63;;;14.90;99.90;;;;;;5016736;28;20180;-91
2022/10/25 00:17:44;;;;;;;7.45;1.90;;;14.70;99.90;;;;;;5016654;28;20198;-90
2022/10/25 00:20:11;;;;;;;4.18;1.15;;;14.80;99.90;;;;;;5016745;28;20219;-89
2022/10/25 00:22:37;;;;;;;12.18;1.80;;;14.80;99.90;;;;;;5015636;28;20631;-87
2022/10/25 00:25:04;;;;;;;7.82;1.50;;;14.90;99.90;;;;;;5015880;28;20164;-88
2022/10/25 00:27:30;;;;;;;9.85;1.67;;;14.90;99.90;;;;;;5016507;28;20250;-86
2022/10/25 00:29:56;;;;;;;10.38;1.38;;;15.00;99.90;;;;;;5016967;28;20173;-89
2022/10/25 00:32:21;;;;;;;15.68;1.58;;;14.90;99.90;;;;;;5016526;28;20171;-90
2022/10/25 00:34:47;;;;;;;3.50;1.05;;;15.00;99.90;;;;;;5015636;28;20646;-91
2022/10/25 00:37:13;;;;;;;9.15;1.60;;;14.90;99.90;;;;;;5016476;28;20250;-90
2022/10/25 00:39:38;;;;;;;6.80;1.60;;;14.90;99.90;;;;;;5031692;28;20161;-88
2022/10/25 00:42:04;;;;;;;6.28;1.63;;;14.90;99.90;;;;;;5015475;28;21027;-89
2022/10/25 00:44:39;;;;;;;8.98;2.08;;;14.90;99.90;;;;;;5016590;28;20252;-87
2022/10/25 00:47:20;;;;;;;5.53;1.70;;;14.90;99.90;;;;;;5016103;28;20203;-88
2022/10/25 00:50:21;;;;;;;5.60;1.48;;;14.90;99.90;;;;;;5016307;28;20164;-86
2022/10/25 00:52:51;;;;;;;5.28;1.25;;;15.00;99.90;;;;;;5015204;28;20633;-89
2022/10/25 00:55:19;;;;;;;3.72;1.20;;;15.00;99.90;;;;;;5015462;28;20164;-88
2022/10/25 00:57:53;;;;;;;4.82;1.25;;;15.10;99.90;;;;;;5016020;28;20188;-91
2022/10/25 01:00:18;;;;;;;4.65;0.93;;;15.00;99.90;;;;;;5016460;28;20161;-90
2022/10/25 01:02:44;;;;;;;5.13;1.58;;;15.00;99.90;;;;;;5015951;28;20172;-89
2022/10/25 01:05:10;;;;;;;8.70;1.92;;;14.90;99.90;;;;;;5015677;28;20236;-88
2022/10/25 01:07:36;;;;;;;6.75;2.05;;;14.90;99.90;;;;;;5015773;28;20212;-89
2022/10/25 01:10:02;;;;;;;13.32;1.63;;;14.90;99.90;;;;;;5015852;28;20175;-91
2022/10/25 01:12:27;;;;;;;4.82;1.48;;;15.00;99.90;;;;;;5015807;28;20526;-90
2022/10/25 01:14:54;;;;;;;8.25;1.23;;;15.10;99.90;;;;;;5015383;28;20199;-90
2022/10/25 01:17:41;;;;;;;6.05;1.52;;;15.00;99.90;;;;;;5015495;28;20234;-91
2022/10/25 01:20:26;;;;;;;7.38;1.50;;;14.80;99.90;;;;;;5014471;28;20164;-90
2022/10/25 01:23:23;;;;;;;14.20;2.03;;;14.70;99.90;;;;;;5015884;28;20176;-91
2022/10/25 01:26:07;;;;;;;6.00;1.20;;;14.80;99.90;;;;;;5031230;28;20200;-91
2022/10/25 01:29:06;;;;;;;7.28;1.38;;;14.70;99.90;;;;;;5015334;28;20241;-91
2022/10/25 01:31:41;;;;;;;4.53;1.17;;;14.70;99.90;;;;;;5014246;28;20176;-90
2022/10/25 01:34:15;;;;;;;8.55;1.55;;;14.70;99.90;;;;;;5014266;28;20206;-86
2022/10/25 01:37:02;;;;;;;6.40;1.70;;;14.70;99.90;;;;;;5030669;28;20234;-89
2022/10/25 01:39:48;;;;;;;7.32;1.55;;;14.80;99.90;;;;;;5015057;28;20169;-91
2022/10/25 01:43:04;;;;;;;13.60;2.03;;;14.80;99.90;;;;;;5014142;28;20172;-89
2022/10/25 01:46:00;;;;;;;12.18;1.33;;;14.80;99.90;;;;;;5014291;28;20194;-91
2022/10/25 01:48:32;;;;;;;10.73;1.60;;;14.70;99.90;;;;;;5014455;28;20235;-91
2022/10/25 01:51:07;;;;;;;9.68;1.60;;;14.80;99.90;;;;;;5015073;28;20168;-86
2022/10/25 01:53:41;;;;;;;2.65;1.15;;;14.80;99.90;;;;;;5014039;28;20589;-88
2022/10/25 01:56:07;;;;;;;8.10;1.42;;;14.80;99.90;;;;;;5014734;28;20242;-91
2022/10/25 01:58:35;;;;;;;6.03;1.40;;;14.80;99.90;;;;;;5015213;28;20168;-89
2022/10/25 02:01:13;;;;;;;5.78;1.73;;;14.80;99.90;;;;;;5015003;28;20173;-87
2022/10/25 02:03:57;;;;;;;12.80;2.33;;;14.80;99.90;;;;;;5014605;28;20230;-90
2022/10/25 02:06:43;;;;;;;6.45;1.45;;;14.90;99.90;;;;;;5014701;28;20219;-88
2022/10/25 02:09:22;;;;;;;2.35;1.10;;;14.90;99.90;;;;;;5014762;28;20215;-89
2022/10/25 02:11:50;;;;;;;6.82;1.75;;;14.70;99.90;;;;;;5014737;28;20156;-88
2022/10/25 02:14:34;;;;;;;12.50;1.80;;;14.80;99.90;;;;;;5013330;28;20195;-90
2022/10/25 02:17:15;;;;;;;6.35;1.80;;;14.90;99.90;;;;;;5013403;28;20282;-86
2022/10/25 02:19:46;;;;;;;9.63;1.50;;;14.80;99.90;;;;;;5014268;28;20223;-90
2022/10/25 02:22:14;;;;;;;13.13;2.60;;;14.80;99.90;;;;;;5014462;28;20168;-90
2022/10/25 02:24:44;;;;;;;15.27;1.60;;;14.80;99.90;;;;;;5013585;28;20168;-91
2022/10/25 02:27:11;;;;;;;4.97;1.20;;;14.80;99.90;;;;;;5012998;28;20200;-91
2022/10/25 02:29:38;;;;;;;6.90;1.10;;;14.80;99.90;;;;;;5014358;28;20161;-90
2022/10/25 02:32:04;;;;;;;10.50;1.75;;;14.90;99.90;;;;;;5014372;28;20653;-90
2022/10/25 02:34:30;;;;;;;6.20;1.30;;;14.90;99.90;;;;;;5013425;28;20164;-90
2022/10/25 02:36:56;;;;;;;6.72;1.15;;;14.80;99.90;;;;;;5014038;28;20184;-88
2022/10/25 02:39:24;;;;;;;5.60;1.27;;;14.70;99.90;;;;;;5013186;28;20179;-89
2022/10/25 02:41:49;;;;;;;3.58;1.48;;;14.70;99.90;;;;;;5014377;28;20173;-90
2022/10/25 02:44:15;;;;;;;5.97;1.25;;;14.70;99.90;;;;;;5028573;28;20181;-86
2022/10/25 02:46:41;;;;;;;5.13;1.42;;;14.80;99.90;;;;;;5013800;28;20191;-90
2022/10/25 02:49:06;;;;;;;5.00;1.67;;;14.70;99.90;;;;;;5013851;28;20180;-91
2022/10/25 02:51:32;;;;;;;4.75;1.45;;;14.60;99.90;;;;;;5029604;28;20168;-85
2022/10/25 02:53:58;;;;;;;4.80;1.02;;;14.80;99.90;;;;;;5013618;28;20230;-89
2022/10/25 02:56:24;;;;;;;3.42;1.48;;;14.70;99.90;;;;;;5012735;28;20243;-89
2022/10/25 02:58:51;;;;;;;5.95;1.58;;;14.60;99.90;;;;;;5014802;28;20161;-90
2022/10/25 03:01:18;;;;;;;9.48;1.50;;;14.70;99.90;;;;;;5015875;28;20165;-88
2022/10/25 03:03:44;;;;;;;6.03;1.63;;;14.80;99.90;;;;;;5014745;28;20172;-89
2022/10/25 03:06:11;;;;;;;7.47;1.45;;;14.60;99.90;;;;;;5028927;28;20196;-90
2022/10/25 03:08:38;;;;;;;12.57;1.73;;;14.60;99.90;;;;;;5013107;28;20266;-90
2022/10/25 03:11:04;;;;;;;6.82;1.40;;;14.60;99.90;;;;;;5012732;28;20169;-89
2022/10/25 03:13:30;;;;;;;10.98;2.20;;;14.60;99.90;;;;;;5013572;28;20326;-91
2022/10/25 03:15:56;;;;;;;12.77;1.63;;;14.50;99.90;;;;;;5013630;28;20713;-87
2022/10/25 03:18:22;;;;;;;9.50;1.50;;;14.60;99.90;;;;;;5013588;28;20183;-90
2022/10/25 03:20:47;;;;;;;6.93;1.67;;;14.50;99.90;;;;;;5013455;28;20188;-86
2022/10/25 03:23:13;;;;;;;11.23;1.95;;;14.40;99.90;;;;;;5012686;28;20511;-90
2022/10/25 03:25:39;;;;;;;12.93;1.90;;;14.50;99.90;;;;;;5013753;28;20168;-87
2022/10/25 03:28:05;;;;;;;10.15;1.67;;;14.60;99.90;;;;;;5013731;28;20204;-90
2022/10/25 03:30:31;;;;;;;7.55;1.63;;;14.60;99.90;;;;;;5014005;28;20615;-88
2022/10/25 03:32:57;;;;;;;8.32;1.77;;;14.60;99.90;;;;;;5013624;28;20169;-88
2022/10/25 03:35:24;;;;;;;6.93;1.85;;;14.60;99.90;;;;;;5013606;28;20757;-88
2022/10/25 03:37:50;;;;;;;11.85;2.28;;;14.50;99.90;;;;;;5013429;28;20188;-88
2022/10/25 03:40:16;;;;;;;5.53;2.03;;;14.50;99.90;;;;;;5012285;28;20623;-90
2022/10/25 03:42:42;;;;;;;7.35;2.05;;;14.50;99.90;;;;;;5013393;28;20180;-87
2022/10/25 03:45:08;;;;;;;6.00;1.70;;;14.60;99.90;;;;;;5028833;28;20517;-87
2022/10/25 03:47:34;;;;;;;11.32;2.10;;;14.50;99.90;;;;;;5012057;28;20231;-86
2022/10/25 03:49:59;;;;;;;11.45;1.75;;;14.40;99.90;;;;;;5013362;28;20169;-89
2022/10/25 03:52:25;;;;;;;8.88;2.03;;;14.40;99.90;;;;;;5013523;28;20179;-87
2022/10/25 03:54:50;;;;;;;6.22;1.92;;;14.50;99.90;;;;;;5013601;28;20340;-89
2022/10/25 03:57:16;;;;;;;7.68;1.83;;;14.50;99.90;;;;;;5016867;28;20550;-89
2022/10/25 03:59:43;;;;;;;6.22;2.22;;;14.40;99.90;;;;;;5016679;23;20312;-83
2022/10/25 04:02:09;;;;;;;15.32;2.15;;;14.30;99.90;;;;;;4992149;28;20694;-83
2022/10/25 04:04:35;;;;;;;11.60;1.98;;;14.50;99.90;;;;;;4991806;28;20181;-83
2022/10/25 04:07:01;;;;;;;12.38;2.22;;;14.60;99.90;;;;;;4988782;28;20197;-82
2022/10/25 04:09:26;;;;;;;5.15;2.10;;;14.50;99.90;;;;;;4996386;28;20177;-83
2022/10/25 04:11:52;;;;;;;3.97;1.90;;;14.50;99.90;;;;;;5011815;28;20161;-83
2022/10/25 04:14:17;;;;;;;12.90;2.38;;;14.50;99.90;;;;;;4996177;28;20165;-85
2022/10/25 04:16:43;;;;;;;8.88;2.22;;;14.50;99.90;;;;;;4998178;28;20196;-85
2022/10/25 04:19:08;;;;;;;12.45;2.78;;;14.60;99.90;;;;;;5018180;28;20497;-86
2022/10/25 04:21:39;;;;;;;10.85;2.50;;;14.70;99.90;;;;;;5022008;28;20599;-85
2022/10/25 04:24:05;;;;;;;9.57;2.70;;;14.60;99.90;;;;;;4996068;28;20165;-84
2022/10/25 04:26:33;;;;;;;14.02;3.10;;;14.60;99.90;;;;;;4995690;28;20189;-83
2022/10/25 04:28:59;;;;;;;10.85;2.47;;;14.60;99.90;;;;;;4994616;28;20221;-84
2022/10/25 04:31:25;;;;;;;7.55;2.58;;;14.60;99.90;;;;;;4995627;28;20222;-82
2022/10/25 04:33:52;;;;;;;10.77;2.70;;;14.60;99.90;;;;;;4994960;28;20656;-84
2022/10/25 04:36:19;;;;;;;8.82;2.47;;;14.60;99.90;;;;;;4995151;28;20694;-83
2022/10/25 04:38:49;;;;;;;6.32;3.05;;;14.60;99.90;;;;;;4996093;28;20244;-84
2022/10/25 04:41:15;;;;;;;11.35;2.38;;;14.70;99.90;;;;;;4994653;28;20184;-84
2022/10/25 04:43:40;;;;;;;8.45;2.22;;;14.70;99.90;;;;;;4994723;28;20169;-83
2022/10/25 04:46:06;;;;;;;11.18;2.00;;;14.70;99.90;;;;;;4994621;28;20193;-83
2022/10/25 04:48:32;;;;;;;11.63;2.50;;;14.60;99.90;;;;;;4994190;28;20220;-84
2022/10/25 04:50:59;;;;;;;4.90;1.83;;;14.60;99.90;;;;;;5010817;28;20170;-84
2022/10/25 04:53:24;;;;;;;9.90;3.15;;;14.60;99.90;;;;;;4994892;28;20169;-84
2022/10/25 04:56:02;;;;;;;4.03;2.38;;;14.70;99.90;;;;;;4995683;28;20205;-83
2022/10/25 04:58:28;;;;;;;4.75;1.95;;;14.80;99.90;;;;;;5010440;28;20215;-84
2022/10/25 05:01:01;;;;;;;6.80;2.30;;;14.80;99.90;;;;;;4994306;28;20567;-83
2022/10/25 05:03:28;;;;;;;9.43;1.88;;;14.80;99.90;;;;;;4995615;28;20532;-84
2022/10/25 05:05:53;;;;;;;5.30;2.35;;;14.90;99.90;;;;;;4995192;28;20181;-84
2022/10/25 05:08:19;;;;;;;10.63;2.40;;;15.00;99.90;;;;;;4994429;28;20213;-83
2022/10/25 05:10:53;;;;;;;12.60;2.08;;;15.00;99.90;;;;;;4994944;28;20179;-83
2022/10/25 05:13:18;;;;;;;5.50;2.40;;;15.10;99.90;;;;;;4994349;28;20692;-84
2022/10/25 05:15:44;;;;;;;5.22;1.85;;;15.10;99.90;;;;;;4994545;28;20248;-84
2022/10/25 05:18:09;;;;;;;8.88;2.50;;;15.10;99.90;;;;;;4993501;28;20161;-85
2022/10/25 05:20:35;;;;;;;6.38;2.58;;;15.20;99.90;;;;;;4995165;28;20571;-85
2022/10/25 05:23:00;;;;;;;6.57;2.28;;;15.20;99.90;;;;;;5009727;28;20275;-84
2022/10/25 05:25:26;;;;;;;13.65;3.10;;;15.10;99.90;;;;;;4993498;28;20173;-83
2022/10/25 05:27:51;;;;;;;8.50;2.40;;;15.10;99.90;;;;;;4994689;28;20271;-84
2022/10/25 05:30:17;;;;;;;3.20;1.60;;;15.10;99.90;;;;;;4994469;28;20620;-84
2022/10/25 05:32:43;;;;;;;6.63;2.17;;;15.10;99.90;;;;;;5009707;28;20662;-83
2022/10/25 05:35:08;;;;;;;11.70;2.47;;;14.90;99.90;;;;;;4993578;28;20539;-83
2022/10/25 05:37:34;;;;;;;9.90;2.92;;;15.00;99.90;;;;;;4993698;28;20193;-84
2022/10/25 05:39:59;;;;;;;10.63;2.30;;;15.20;99.90;;;;;;4993176;28;20184;-82
2022/10/25 05:42:26;;;;;;;11.15;2.28;;;15.20;99.90;;;;;;4993540;28;20172;-82
2022/10/25 05:44:52;;;;;;;14.75;3.50;;;15.10;99.90;;;;;;5009827;28;20177;-82
2022/10/25 05:47:17;;;;;;;10.82;2.10;;;15.10;99.90;;;;;;4993061;28;20205;-83
2022/10/25 05:49:43;;;;;;;8.25;2.15;;;15.00;99.90;;;;;;4992539;28;20249;-83
2022/10/25 05:52:09;;;;;;;15.05;2.88;;;15.00;99.90;;;;;;4993073;28;20173;-83
2022/10/25 05:54:34;;;;;;;9.30;2.67;;;14.90;99.90;;;;;;4991964;28;20230;-83
2022/10/25 05:57:00;;;;;;;14.60;2.00;;;15.00;99.90;;;;;;5008505;28;20213;-84
2022/10/25 05:59:25;;;;;;;8.40;3.20;;;15.00;99.90;;;;;;4994365;28;20189;-83
2022/10/25 06:01:51;;;;;;;13.15;2.78;;;14.80;99.90;;;;;;4992608;28;20220;-83
2022/10/25 06:04:17;;;;;;;12.98;2.78;;;14.80;99.90;;;;;;5009365;28;20181;-83
2022/10/25 06:06:45;;;;;;;11.35;2.63;;;14.80;99.90;;;;;;4992964;28;20549;-83
2022/10/25 06:09:12;;;;;;;10.35;2.65;;;14.80;99.90;;;;;;4993453;28;20176;-83
2022/10/25 06:11:38;;;;;;;19.25;2.85;;;14.90;99.90;;;;;;4992446;28;20161;-83
2022/10/25 06:14:05;;;;;;;9.50;2.53;;;14.90;99.90;;;;;;4991388;28;20170;-83
2022/10/25 06:16:31;;;;;;;5.68;2.28;;;14.90;99.90;;;;;;4992417;28;20208;-84
2022/10/25 06:18:57;;;;;;;10.20;2.28;;;14.80;99.90;;;;;;4994024;28;20157;-84
2022/10/25 06:21:25;;;;;;;13.63;2.55;;;14.70;99.90;;;;;;4993790;28;20658;-85
2022/10/25 06:23:52;;;;;;;10.82;2.35;;;14.60;99.90;;;;;;4991722;28;20178;-85
2022/10/25 06:26:20;;;;;;;10.43;1.95;;;14.40;99.90;;;;;;4992014;28;20193;-85
2022/10/25 06:28:46;;;;;;;20.63;3.28;;;14.50;99.90;;;;;;5008268;28;20268;-84
2022/10/25 06:31:14;;;;;;;7.60;1.83;;;14.40;99.90;;;;;;4993308;28;20161;-85
2022/10/25 06:33:40;;;;;;;13.38;2.35;;;14.40;99.90;;;;;;4991690;28;20162;-85
2022/10/25 06:36:12;;;;;;;5.75;1.70;;;14.40;99.90;;;;;;4991742;28;20235;-84
2022/10/25 06:38:37;;;;;;;7.47;2.08;;;14.40;99.90;;;;;;4991708;28;20232;-84
2022/10/25 06:41:05;;;;;;;9.95;2.22;;;14.50;99.90;;;;;;4992518;28;20170;-86
2022/10/25 06:43:33;;;;;;;11.27;2.17;;;14.70;99.90;;;;;;4992154;28;20177;-85
2022/10/25 06:46:07;;;;;;;6.05;1.92;;;14.50;99.90;;;;;;4991546;28;20200;-83
2022/10/25 06:48:33;;;;;;;12.10;1.95;;;14.60;99.90;;;;;;4992705;28;20331;-83
2022/10/25 06:51:04;;;;;;;11.20;2.13;;;14.70;99.90;;;;;;4991037;28;20256;-83
2022/10/25 06:53:30;;;;;;;7.57;2.10;;;14.90;99.90;;;;;;4993013;28;20177;-85
2022/10/25 06:56:07;;;;;;;12.95;2.40;;;14.90;99.90;;;;;;5007982;28;20185;-83
2022/10/25 06:58:34;;;;;;;9.85;2.22;;;15.00;99.90;;;;;;4992938;28;20213;-83
2022/10/25 07:01:01;;;;;;;17.10;1.73;;;15.10;99.90;;;;;;5008132;28;20173;-83
2022/10/25 07:03:33;;;;;;;9.38;1.73;;;15.10;99.90;;;;;;4991657;28;20180;-84
2022/10/25 07:06:05;;;;;;;4.43;1.55;;;15.10;99.90;;;;;;4992686;28;20193;-85
2022/10/25 07:08:31;;;;;;;14.35;1.65;;;15.00;99.90;;;;;;4994169;28;20287;-89
2022/10/25 07:10:57;;;;;;;15.27;2.70;;;15.30;99.90;;;;;;4994275;28;20175;-89
2022/10/25 07:13:23;;;;;;;10.07;2.10;;;15.30;99.90;;;;;;4992447;28;20643;-88
2022/10/25 07:15:48;;;;;;;11.85;1.95;;;15.40;99.90;;;;;;4991676;28;20180;-84
2022/10/25 07:18:14;;;;;;;12.20;2.03;;;15.30;99.90;;;;;;4990054;28;20252;-84
2022/10/25 07:20:40;;;;;;;12.48;1.75;;;15.20;99.90;;;;;;4990576;28;20172;-84
2022/10/25 07:23:05;;;;;;;6.03;1.05;;;15.10;99.90;;;;;;4992064;28;20188;-84
2022/10/25 07:25:31;;;;;;;6.80;1.88;;;15.10;99.90;;;;;;4992143;28;20639;-84
2022/10/25 07:27:56;;;;;;;8.68;1.63;;;15.00;99.90;;;;;;4993145;28;20515;-84
2022/10/25 07:30:22;;;;;;;7.07;1.90;;;15.00;99.90;;;;;;5009363;28;20201;-85
2022/10/25 07:32:48;;;;;;;8.98;1.90;;;15.20;99.90;;;;;;4995763;28;20624;-86
2022/10/25 07:35:13;;;;;;;8.48;2.28;;;15.40;99.90;;;;;;4996223;28;20628;-83
2022/10/25 07:37:39;;;;;;;6.95;1.92;;;15.40;99.90;;;;;;4997077;28;20243;-92
2022/10/25 07:40:05;;;;;;;10.07;2.30;;;15.30;99.90;;;;;;4995872;28;20239;-86
2022/10/25 07:42:31;;;;;;;15.75;2.25;;;15.40;99.90;;;;;;4995745;28;20192;-85
2022/10/25 07:44:56;;;;;;;7.43;1.80;;;15.50;99.90;;;;;;4995122;28;20636;-85
2022/10/25 07:47:22;;;;;;;8.48;1.55;;;15.40;99.90;;;;;;4996644;28;20551;-86
2022/10/25 07:49:47;;;;;;;7.57;2.15;;;15.40;99.90;;;;;;4995329;28;20307;-84
2022/10/25 07:52:13;;;;;;;10.98;2.28;;;15.20;99.90;;;;;;4996554;28;20640;-85
2022/10/25 07:54:38;;;;;;;4.38;1.35;;;15.30;99.90;;;;;;5011630;28;20642;-86
2022/10/25 07:57:05;;;;;;;13.07;1.80;;;15.20;99.90;;;;;;4996364;28;20208;-85
2022/10/25 07:59:31;;;;;;;9.35;1.92;;;15.30;99.90;;;;;;4994822;28;20295;-85
2022/10/25 08:01:56;;;;;;;5.78;1.67;;;15.40;99.90;;;;;;4996059;28;20256;-85
2022/10/25 08:04:22;;;;;;;9.95;2.05;;;15.40;99.90;;;;;;4995112;28;20181;-84
2022/10/25 08:06:48;;;;;;;9.98;2.20;;;15.40;99.90;;;;;;5010944;28;20193;-84
2022/10/25 08:09:13;;;;;;;13.93;1.88;;;15.20;99.90;;;;;;5010837;28;20644;-84
2022/10/25 08:11:39;;;;;;;9.80;1.55;;;15.20;99.90;;;;;;4994899;28;20586;-83
2022/10/25 08:14:04;;;;;;;4.78;1.88;;;15.30;99.90;;;;;;4995110;28;20204;-83
2022/10/25 08:16:30;;;;;;;9.50;1.60;;;15.20;99.90;;;;;;4994554;28;20300;-84
2022/10/25 08:18:56;;;;;;;13.05;2.40;;;15.00;99.90;;;;;;4995494;28;20228;-87
2022/10/25 08:21:21;;;;;;;2.75;1.40;;;15.10;99.90;;;;;;4996463;28;20173;-84
2022/10/25 08:23:47;;;;;;;15.48;1.98;;;15.20;99.90;;;;;;4992514;28;20173;-91
2022/10/25 08:26:12;;;;;;;8.48;2.25;;;15.30;99.90;;;;;;4994612;28;20203;-84
2022/10/25 08:28:38;;;;;;;6.82;1.55;;;15.40;99.90;;;;;;4994632;28;20208;-85
2022/10/25 08:31:04;;;;;;;8.90;2.80;;;15.40;99.90;;;;;;4994162;28;20169;-84
2022/10/25 08:33:29;;;;;;;10.32;2.10;;;15.40;99.90;;;;;;4995338;28;20185;-84
2022/10/25 08:35:58;;;;;;;6.57;1.60;;;15.30;99.90;;;;;;4993610;28;20189;-83
2022/10/25 08:38:23;;;;;;;14.27;1.92;;;15.20;99.90;;;;;;5009554;28;20173;-85
2022/10/25 08:40:57;;;;;;;13.63;2.25;;;15.20;99.90;;;;;;4995231;28;20157;-86
2022/10/25 08:43:35;;;;;;;17.58;2.97;;;15.30;99.90;;;;;;4994359;28;20173;-86
2022/10/25 08:46:07;;;;;;;9.90;2.00;;;15.40;99.90;;;;;;5009556;28;20759;-85
2022/10/25 08:48:37;;;;;;;5.32;2.17;;;15.40;99.90;;;;;;4994255;28;20213;-85
2022/10/25 08:51:30;;;;;;;15.65;2.30;;;15.60;99.90;;;;;;5007593;28;20162;-86
2022/10/25 08:54:02;;;;;;;14.25;2.25;;;15.80;99.90;;;;;;4995022;28;20181;-85
2022/10/25 08:56:28;;;;;;;13.30;2.25;;;15.90;99.90;;;;;;4994590;28;20185;-84
2022/10/25 08:58:58;;;;;;;9.43;2.00;;;16.10;99.90;;;;;;4993417;28;20264;-86
2022/10/25 09:01:28;;;;;;;7.05;2.35;;;16.00;99.90;;;;;;4993446;28;20547;-83
2022/10/25 09:03:54;;;;;;;10.18;2.10;;;16.00;99.90;;;;;;4994817;28;20165;-89
2022/10/25 09:06:38;;;;;;;3.03;1.35;;;15.80;99.90;;;;;;4995232;28;20190;-86
2022/10/25 09:09:04;;;;;;;16.20;2.03;;;15.90;99.90;;;;;;4993550;28;20284;-87
2022/10/25 09:11:45;;;;;;;4.45;1.65;;;16.00;99.90;;;;;;4994688;28;20624;-87
2022/10/25 09:14:13;;;;;;;9.98;1.90;;;16.00;99.90;;;;;;4994581;28;20590;-86
2022/10/25 09:16:52;;;;;;;9.38;2.08;;;16.10;99.90;;;;;;4993962;28;20204;-87
2022/10/25 09:19:37;;;;;;;12.23;2.10;;;16.00;99.90;;;;;;4994516;28;20180;-88
2022/10/25 09:22:20;;;;;;;5.18;2.10;;;16.20;99.90;;;;;;4994602;28;20219;-87
2022/10/25 09:24:52;;;;;;;5.15;1.33;;;16.30;99.90;;;;;;4993997;28;20188;-88
2022/10/25 09:27:32;;;;;;;11.65;1.60;;;16.30;99.90;;;;;;4994977;28;20237;-87
2022/10/25 09:30:11;;;;;;;9.20;1.85;;;16.20;99.90;;;;;;4994063;28;20257;-86
2022/10/25 09:32:47;;;;;;;8.73;1.30;;;16.20;99.90;;;;;;4993899;28;20263;-87
2022/10/25 09:35:53;;;;;;;7.50;1.23;;;16.20;99.90;;;;;;4994163;28;20173;-87
2022/10/25 09:38:51;;;;;;;9.45;1.70;;;16.10;99.90;;;;;;4992839;28;20185;-88
2022/10/25 09:41:32;;;;;;;11.63;2.22;;;16.20;99.90;;;;;;4993912;28;20260;-88
2022/10/25 09:44:11;;;;;;;8.52;2.97;;;16.40;99.90;;;;;;4993648;28;20169;-88
2022/10/25 09:46:41;;;;;;;8.05;2.00;;;16.40;99.90;;;;;;4993682;28;20197;-88
2022/10/25 09:49:19;;;;;;;8.80;1.75;;;16.40;99.90;;;;;;4993984;28;20223;-87
2022/10/25 09:52:19;;;;;;;7.93;1.40;;;16.40;99.90;;;;;;4993628;28;20567;-88
2022/10/25 09:54:53;;;;;;;7.63;1.50;;;16.40;99.90;;;;;;4976275;28;20587;-87
2022/10/25 09:57:19;;;;;;;8.57;1.80;;;16.40;99.90;;;;;;4994766;28;20209;-87
2022/10/25 09:59:49;;;;;;;8.23;1.50;;;16.50;99.90;;;;;;5033536;23;20736;-79
2022/10/25 10:02:22;;;;;;;11.85;1.40;;;16.40;99.90;;;;;;5031977;28;20210;-83
2022/10/25 10:04:47;;;;;;;8.95;1.58;;;16.50;99.90;;;;;;5031912;28;20179;-80
2022/10/25 10:07:22;;;;;;;19.50;2.40;;;16.80;99.90;;;;;;5045748;28;20214;-79
2022/10/25 10:09:50;;;;;;;5.65;1.67;;;16.80;99.90;;;;;;5051387;28;20649;-79
2022/10/25 10:12:22;;;;;;;6.78;1.30;;;16.70;99.90;;;;;;5051323;28;20632;-79
2022/10/25 10:15:17;;;;;;;6.82;1.98;;;16.70;99.90;;;;;;5051411;28;20175;-80
2022/10/25 10:17:42;;;;;;;9.93;1.90;;;16.70;99.90;;;;;;5042157;28;20285;-86
2022/10/25 10:20:12;;;;;;;9.35;1.88;;;16.80;99.90;;;;;;5051465;28;20691;-79
2022/10/25 10:22:47;;;;;;;6.38;1.50;;;16.70;99.90;;;;;;5052308;28;20221;-79
2022/10/25 10:25:19;;;;;;;8.23;1.73;;;16.90;99.90;;;;;;5052626;28;20170;-79
2022/10/25 10:27:46;;;;;;;5.90;1.60;;;16.90;99.90;;;;;;5051422;28;20211;-79
2022/10/25 10:30:24;;;;;;;5.15;1.30;;;17.10;99.90;;;;;;5052721;28;20261;-79
2022/10/25 10:33:15;;;;;;;8.57;1.10;;;17.20;99.90;;;;;;5051467;28;20198;-80
2022/10/25 10:35:40;;;;;;;6.25;1.60;;;17.40;99.90;;;;;;5051308;28;20210;-79
2022/10/25 10:38:25;;;;;;;6.70;2.00;;;17.60;99.90;;;;;;5050923;28;20178;-79
2022/10/25 10:41:19;;;;;;;3.03;1.13;;;17.70;99.90;;;;;;5051628;28;20523;-79
2022/10/25 10:43:45;;;;;;;8.77;1.50;;;17.50;99.90;;;;;;5051421;28;20171;-81
2022/10/25 10:46:15;;;;;;;3.95;1.30;;;17.40;99.90;;;;;;5052727;28;20183;-82
2022/10/25 10:48:43;;;;;;;5.45;1.10;;;17.30;99.90;;;;;;5050930;28;20252;-79
2022/10/25 10:51:13;;;;;;;7.25;1.30;;;17.20;99.90;;;;;;5050930;28;20649;-79
2022/10/25 10:53:39;;;;;;;5.38;1.20;;;17.00;99.90;;;;;;5052479;28;20541;-79
2022/10/25 10:56:06;;;;;;;5.75;1.33;;;16.90;99.90;;;;;;5051868;28;20673;-79
2022/10/25 10:58:37;;;;;;;11.73;1.83;;;17.00;99.90;;;;;;5050606;28;20178;-79
2022/10/25 11:01:13;;;;;;;4.60;1.15;;;17.30;99.90;;;;;;5050320;28;20167;-84
2022/10/25 11:03:41;;;;;;;3.38;0.98;;;17.50;99.90;;;;;;5051838;28;20175;-81
2022/10/25 11:06:17;;;;;;;3.20;1.27;;;17.50;99.90;;;;;;5051660;28;20665;-86
2022/10/25 11:08:45;;;;;;;3.40;1.05;;;17.50;99.90;;;;;;5050736;28;20581;-79
2022/10/25 11:11:21;;;;;;;9.32;1.33;;;17.50;99.90;;;;;;5057980;28;20159;-79
2022/10/25 11:13:51;;;;;;;5.68;1.00;;;17.50;99.90;;;;;;5056436;28;20206;-79
2022/10/25 11:16:49;;;;;;;5.47;0.90;;;17.50;99.90;;;;;;5053317;28;20194;-78
2022/10/25 11:19:35;;;;;;;6.93;1.27;;;17.70;99.90;;;;;;5051806;28;20220;-81
2022/10/25 11:22:15;;;;;;;9.98;1.55;;;17.60;99.90;;;;;;5051836;28;20171;-82
2022/10/25 11:25:07;;;;;;;4.80;1.48;;;17.60;99.90;;;;;;5052170;28;20224;-83
2022/10/25 11:27:54;;;;;;;2.88;1.10;;;17.50;99.90;;;;;;5051060;28;20218;-80
2022/10/25 11:30:22;;;;;;;2.80;0.85;;;17.60;99.90;;;;;;5052391;28;20163;-88
2022/10/25 11:32:56;;;;;;;13.52;1.63;;;17.80;99.90;;;;;;5051053;28;20700;-79
2022/10/25 11:35:45;;;;;;;10.43;1.30;;;17.80;99.90;;;;;;5052186;28;20218;-80
2022/10/25 11:38:42;;;;;;;4.47;1.48;;;17.80;99.90;;;;;;5050865;28;20190;-80
2022/10/25 11:41:31;;;;;;;4.97;1.17;;;18.00;99.90;;;;;;5052407;28;20212;-81
2022/10/25 11:44:33;;;;;;;3.08;1.00;;;18.10;99.90;;;;;;5050641;28;20175;-80
2022/10/25 11:47:17;;;;;;;10.95;1.15;;;18.10;99.90;;;;;;5051478;28;20178;-81
2022/10/25 11:50:17;;;;;;;6.68;1.02;;;18.00;99.90;;;;;;5051975;28;20179;-92
2022/10/25 11:53:01;;;;;;;2.45;1.00;;;17.90;99.90;;;;;;5050703;28;20163;-82
2022/10/25 11:55:30;;;;;;;2.67;0.80;;;18.10;99.90;;;;;;5050295;28;20269;-85
2022/10/25 11:58:11;;;;;;;7.72;1.13;;;18.20;99.90;;;;;;5051833;28;20261;-80
2022/10/25 12:00:49;;;;;;;5.90;1.33;;;18.10;99.90;;;;;;5050478;28;20588;-80
2022/10/25 12:03:39;;;;;;;9.25;1.00;;;18.10;99.90;;;;;;5051675;28;20167;-79
2022/10/25 12:06:28;;;;;;;3.50;0.80;;;18.20;99.90;;;;;;5046244;28;20195;-79
2022/10/25 12:09:19;;;;;;;5.45;1.85;;;18.30;99.90;;;;;;5031421;28;20218;-79
2022/10/25 12:12:07;;;;;;;6.53;1.48;;;18.40;99.90;;;;;;5030697;28;20180;-85
2022/10/25 12:14:39;;;;;;;3.90;0.90;;;18.60;99.90;;;;;;5030277;28;20215;-82
2022/10/25 12:17:22;;;;;;;5.18;1.08;;;18.90;99.90;;;;;;5031686;28;20203;-83
2022/10/25 12:19:50;;;;;;;2.38;1.02;;;19.10;99.90;;;;;;5035253;28;20171;-82
2022/10/25 12:22:23;;;;;;;2.58;0.90;;;19.10;99.90;;;;;;5035230;28;20167;-82
2022/10/25 12:25:05;;;;;;;2.33;0.73;;;19.10;99.90;;;;;;5033980;28;20573;-81
2022/10/25 12:27:32;;;;;;;3.08;1.10;;;19.00;99.90;;;;;;5033647;28;20239;-82
2022/10/25 12:30:05;;;;;;;4.93;0.73;;;19.00;99.90;;;;;;5033717;28;20172;-81
2022/10/25 12:32:49;;;;;;;9.60;1.45;;;19.10;99.90;;;;;;5034553;28;20626;-82
2022/10/25 12:35:35;;;;;;;2.80;1.23;;;19.30;99.90;;;;;;5033292;28;20653;-82
2022/10/25 12:38:06;;;;;;;3.97;0.82;;;19.40;99.90;;;;;;5034621;28;20172;-84
2022/10/25 12:40:38;;;;;;;3.92;1.17;;;19.30;99.90;;;;;;5034933;28;20221;-80
2022/10/25 12:43:21;;;;;;;2.15;0.98;;;19.40;99.90;;;;;;5033552;28;20638;-85
2022/10/25 12:45:52;;;;;;;3.25;0.70;;;19.30;99.90;;;;;;5033592;28;20333;-83
2022/10/25 12:48:39;;;;;;;5.45;1.08;;;19.20;99.90;;;;;;5034362;28;20654;-81
2022/10/25 12:51:20;;;;;;;5.07;1.38;;;19.20;99.90;;;;;;5034916;28;20172;-81
2022/10/25 12:54:02;;;;;;;5.30;0.77;;;19.10;99.90;;;;;;5033360;28;20642;-82
2022/10/25 12:57:00;;;;;;;0.98;0.68;;;18.90;99.90;;;;;;5033220;28;20212;-81
2022/10/25 12:59:38;;;;;;;11.38;1.30;;;18.70;99.90;;;;;;5027190;28;20213;-81
2022/10/25 13:02:43;;;;;;;5.45;1.73;;;18.80;99.90;;;;;;5032985;28;20174;-82
2022/10/25 13:05:09;;;;;;;8.05;1.40;;;18.80;99.90;;;;;;5034907;28;20251;-83